Flight Track Log - Related Links

Times and Time Zones

All times are in EDT time to prevent confusion due to time zone crossing. See the N1764J flight status page for this flight to view local times or setup timezone preferences in your user account.

Time Position Orientation Groundspeed Altitude Reporting Facility
EDT Latitude Longitude Course Direction KTS MPH feet Rate Location/Type
Sat 02:55:00 PM 34.2013 -78.5604 303° West  Level Estimated
Sat 02:56:00 PM 34.2209 -78.5958 304° West  Level Estimated
Sat 02:57:00 PM 34.2403 -78.6312 304° West  Level Estimated
Sat 02:58:00 PM 34.2598 -78.6666 304° West  Level Estimated
Sat 02:59:00 PM 34.2793 -78.7020 304° West  Level Estimated
Sat 03:00:00 PM 34.2988 -78.7375 304° West  Level Estimated
Sat 03:01:00 PM 34.3182 -78.7729 304° West  Level Estimated
Sat 03:02:00 PM 34.3377 -78.8084 304° West  Level Estimated
Sat 03:03:00 PM 34.3571 -78.8439 304° West  Level Estimated
Sat 03:04:00 PM 34.3766 -78.8794 304° West  Level Estimated
Sat 03:05:00 PM 34.4069 -78.8993 332° Northwest  Level FlightAware Approximate
Sat 03:06:00 PM 34.4399 -78.9294 302° West  Level FlightAware Approximate
Sat 03:07:00 PM 34.4582 -78.9649 302° West  Level FlightAware Approximate
Sat 03:08:00 PM 34.4765 -79.0005 302° West  Level FlightAware Approximate
Sat 03:09:00 PM 34.4948 -79.0360 302° West  Level FlightAware Approximate
Sat 03:10:00 PM 34.5131 -79.0716 302° West  Level FlightAware Approximate
Sat 03:11:00 PM 34.5314 -79.1071 302° West  Level FlightAware Approximate
Sat 03:12:00 PM 34.5496 -79.1427 302° West  Level FlightAware Approximate
Sat 03:13:00 PM 34.5679 -79.1783 302° West  Level FlightAware Approximate
Sat 03:14:00 PM 34.5861 -79.2140 302° West  Level FlightAware Approximate
Sat 03:15:00 PM 34.6044 -79.2496 302° West  Level FlightAware Approximate
Sat 03:16:00 PM 34.6226 -79.2852 302° West  Level FlightAware Approximate
Sat 03:17:00 PM 34.6408 -79.3209 302° West  Level FlightAware Approximate
Sat 03:18:00 PM 34.6590 -79.3566 302° West  Level FlightAware Approximate
Sat 03:19:00 PM 34.6772 -79.3923 302° West  Level FlightAware Approximate
Sat 03:20:00 PM 34.6954 -79.4280 302° West  Level FlightAware Approximate
Sat 03:21:00 PM 34.7135 -79.4637 302° West  Level FlightAware Approximate
Sat 03:22:00 PM 34.7317 -79.4995 302° West  Level FlightAware Approximate
Sat 03:23:00 PM 34.7498 -79.5352 302° West  Level FlightAware Approximate
Sat 03:24:00 PM 34.7680 -79.5710 302° West  Level FlightAware Approximate
Sat 03:25:00 PM 34.7861 -79.6068 302° West  Level FlightAware Approximate
Sat 03:26:00 PM 34.8042 -79.6426 302° West  Level FlightAware Approximate
Sat 03:27:00 PM 34.8223 -79.6785 302° West  Level FlightAware Approximate
Sat 03:28:00 PM 34.8404 -79.7143 302° West  Level FlightAware Approximate
Sat 03:29:00 PM 34.8584 -79.7502 301° West  Level FlightAware Approximate
Sat 03:30:00 PM 34.8764 -79.7861 301° West  Level FlightAware Approximate
Sat 03:31:00 PM 34.8944 -79.8221 301° West  Level FlightAware Approximate
Sat 03:32:00 PM 34.9124 -79.8580 301° West  Level FlightAware Approximate
Sat 03:33:00 PM 34.9304 -79.8940 301° West  Level FlightAware Approximate
Sat 03:34:00 PM 34.9483 -79.9300 301° West  Level FlightAware Approximate
Sat 03:35:00 PM 34.9663 -79.9659 301° West  Level FlightAware Approximate
Sat 03:36:00 PM 34.9840 -80.0021 292° West  Level FlightAware Approximate

Login

Don't have an account? Register now (free) for customized features, flight alerts, and more!